Time;durP1;ratioP1;P1;durP2;ratioP2;P2;SDS_P1;SDS_P2;PMS_P1;PMS_P2;Temp;Humidity;BMP_temperature;BMP_pressure;BME280_temperature;BME280_humidity;BME280_pressure;Samples;Min_cycle;Max_cycle;Signal;HPM_P1;HPM_P2
2022/12/10 00:01:43;;;;;;;8.05;6.90;;;;;;;17.43;41.15;100762.84;5025905;28;20061;-64
2022/12/10 00:04:10;;;;;;;9.50;6.95;;;;;;;17.44;41.06;100758.31;5041220;28;20072;-62
2022/12/10 00:06:36;;;;;;;8.60;6.90;;;;;;;17.43;41.05;100754.78;5040432;28;20394;-63
2022/12/10 00:09:04;;;;;;;8.10;6.10;;;;;;;17.42;41.16;100761.16;5045868;28;20033;-63
2022/12/10 00:11:29;;;;;;;8.15;6.40;;;;;;;17.40;41.01;100755.09;5045109;28;20041;-63
2022/12/10 00:13:55;;;;;;;7.72;6.30;;;;;;;17.38;41.25;100756.28;5044720;28;20040;-63
2022/12/10 00:16:22;;;;;;;7.40;6.32;;;;;;;17.41;41.03;100758.63;5045165;28;20025;-63
2022/12/10 00:18:48;;;;;;;8.48;6.85;;;;;;;17.39;41.02;100764.16;5045705;28;20116;-64
2022/12/10 00:21:17;;;;;;;8.55;6.75;;;;;;;17.39;41.08;100755.25;5045428;28;20029;-63
2022/12/10 00:23:43;;;;;;;7.53;6.13;;;;;;;17.35;41.18;100749.38;5045088;28;20022;-63
2022/12/10 00:26:14;;;;;;;7.10;6.15;;;;;;;17.34;41.31;100749.53;5045181;28;20075;-63
2022/12/10 00:28:39;;;;;;;9.25;6.93;;;;;;;17.38;41.08;100761.66;5045062;28;20029;-63
2022/12/10 00:31:25;;;;;;;8.65;6.57;;;;;;;17.37;41.30;100755.41;5045512;28;20067;-63
2022/12/10 00:33:53;;;;;;;7.45;6.28;;;;;;;17.38;40.98;100757.13;5045070;28;20437;-63
2022/12/10 00:36:21;;;;;;;7.78;6.00;;;;;;;17.38;41.05;100764.34;5045079;28;20029;-63
2022/12/10 00:38:47;;;;;;;8.85;7.03;;;;;;;17.31;41.08;100747.16;5045474;28;20025;-63
2022/12/10 00:41:13;;;;;;;8.32;6.95;;;;;;;17.36;41.06;100756.41;5044762;28;20037;-62
2022/12/10 00:43:38;;;;;;;6.65;5.88;;;;;;;17.36;40.96;100758.28;5044753;28;20029;-64
2022/12/10 00:46:04;;;;;;;8.15;6.30;;;;;;;17.35;41.16;100762.81;5044513;28;20481;-63
2022/12/10 00:48:29;;;;;;;14.88;6.38;;;;;;;17.36;41.19;100759.09;5044702;28;20049;-63
2022/12/10 00:50:59;;;;;;;8.10;6.18;;;;;;;17.35;41.04;100756.59;5045072;28;20033;-63
2022/12/10 00:53:24;;;;;;;;;;;;;;;17.35;41.09;100752.06;5045347;28;20033;-63
2022/12/10 00:55:50;;;;;;;9.20;6.93;;;;;;;17.31;41.13;100750.69;5044645;28;20389;-63
2022/12/10 00:58:15;;;;;;;7.85;6.60;;;;;;;17.33;40.99;100758.59;5044397;28;20458;-63
2022/12/10 01:00:41;;;;;;;7.22;5.97;;;;;;;17.33;40.90;100762.13;5044998;28;20060;-63
2022/12/10 01:03:06;;;;;;;8.20;6.65;;;;;;;17.32;40.98;100763.13;5045074;28;20022;-62
2022/12/10 01:05:31;;;;;;;8.68;5.75;;;;;;;17.28;41.12;100764.44;5044499;28;20027;-63
2022/12/10 01:07:56;;;;;;;6.68;5.57;;;;;;;17.32;41.11;100765.81;5043623;28;20041;-64
2022/12/10 01:10:22;;;;;;;8.07;6.80;;;;;;;17.31;40.95;100758.75;5044738;28;20056;-64
2022/12/10 01:12:47;;;;;;;8.88;6.05;;;;;;;17.32;40.94;100773.03;5044410;28;20455;-63
2022/12/10 01:15:12;;;;;;;7.25;5.93;;;;;;;17.10;41.00;100732.31;5044224;28;20082;-63
2022/12/10 01:17:38;;;;;;;7.13;5.95;;;;;;;17.31;41.08;100772.19;5044153;28;20080;-64
2022/12/10 01:20:03;;;;;;;8.10;6.22;;;;;;;17.31;41.01;100774.88;5044836;28;20040;-63
2022/12/10 01:22:29;;;;;;;7.82;6.22;;;;;;;17.32;41.00;100781.94;5044602;28;20030;-64
2022/12/10 01:24:54;;;;;;;8.20;6.35;;;;;;;17.31;41.06;100788.31;5047380;28;20033;-64
2022/12/10 01:27:19;;;;;;;7.50;5.70;;;;;;;17.32;41.02;100786.47;5048545;28;20092;-64
2022/12/10 01:29:44;;;;;;;8.05;6.47;;;;;;;17.31;40.89;100779.41;5048177;28;20025;-64
2022/12/10 01:32:10;;;;;;;7.07;5.97;;;;;;;17.31;41.09;100782.94;5048643;28;20037;-63
2022/12/10 01:34:35;;;;;;;7.88;6.30;;;;;;;17.20;41.06;100767.97;5048320;28;20025;-63
2022/12/10 01:37:00;;;;;;;6.93;5.60;;;;;;;17.29;41.08;100784.97;5048374;28;20189;-63
2022/12/10 01:39:26;;;;;;;8.40;5.97;;;;;;;17.30;40.95;100788.50;5048806;28;20025;-63
2022/12/10 01:41:54;;;;;;;7.30;5.78;;;;;;;17.28;40.88;100790.47;5048001;28;20375;-63
2022/12/10 01:44:19;;;;;;;7.43;6.20;;;;;;;17.29;40.74;100797.53;5047660;28;20029;-64
2022/12/10 01:46:47;;;;;;;7.68;6.35;;;;;;;17.19;40.82;100785.06;5047311;28;20058;-63
2022/12/10 01:49:21;;;;;;;7.82;6.20;;;;;;;17.29;40.86;100805.59;5063520;28;20093;-63
2022/12/10 01:51:49;;;;;;;6.78;5.78;;;;;;;17.29;40.86;100795.72;5046916;28;20025;-63
2022/12/10 01:54:19;;;;;;;6.53;5.72;;;;;;;17.29;40.73;100800.22;5046918;28;20363;-64
2022/12/10 01:56:46;;;;;;;7.40;5.40;;;;;;;17.28;41.00;100802.06;5048082;28;20040;-64
2022/12/10 01:59:13;;;;;;;8.18;5.78;;;;;;;17.19;40.74;100784.22;5038211;28;20041;-63
2022/12/10 02:01:51;;;;;;;7.78;5.70;;;;;;;17.27;40.96;100799.53;5027120;28;20096;-63
2022/12/10 02:04:35;;;;;;;7.35;5.82;;;;;;;17.27;40.84;100807.59;5043474;28;20048;-63
2022/12/10 02:07:18;;;;;;;7.28;5.38;;;;;;;17.27;40.75;100804.91;5061375;28;20056;-63
2022/12/10 02:09:46;;;;;;;6.47;5.78;;;;;;;17.27;40.78;100807.59;5048231;28;20025;-63
2022/12/10 02:12:21;;;;;;;6.38;5.68;;;;;;;17.26;40.68;100800.56;5047399;28;20479;-62
2022/12/10 02:14:56;;;;;;;7.55;5.57;;;;;;;17.26;40.72;100800.56;5047324;28;20025;-62
2022/12/10 02:17:33;;;;;;;6.82;5.40;;;;;;;17.25;40.68;100799.72;5046199;28;20571;-62
2022/12/10 02:20:15;;;;;;;7.85;5.43;;;;;;;17.26;40.65;100798.72;5047880;28;20097;-62
2022/12/10 02:23:02;;;;;;;7.95;5.72;;;;;;;17.25;40.78;100799.72;5047636;28;20064;-63
2022/12/10 02:26:02;;;;;;;7.63;5.50;;;;;;;17.24;40.60;100792.63;5047053;28;20509;-63
2022/12/10 02:28:44;;;;;;;6.95;5.07;;;;;;;17.23;40.82;100783.75;5037692;28;20123;-64
2022/12/10 02:31:11;;;;;;;7.20;5.95;;;;;;;17.23;40.63;100790.97;5046333;28;20524;-66
2022/12/10 02:33:42;;;;;;;6.88;5.50;;;;;;;17.22;40.65;100792.81;5047217;28;20025;-64
2022/12/10 02:36:09;;;;;;;6.30;5.40;;;;;;;17.22;40.85;100790.13;5044665;28;20501;-63
2022/12/10 02:38:37;;;;;;;7.03;5.85;;;;;;;17.21;40.83;100776.84;5046229;28;20033;-64
2022/12/10 02:41:06;;;;;;;6.53;5.82;;;;;;;17.22;40.73;100781.22;5045598;28;20025;-63
2022/12/10 02:43:33;;;;;;;6.78;6.07;;;;;;;17.23;40.68;100778.38;5045320;28;20136;-63
2022/12/10 02:45:59;;;;;;;6.60;5.80;;;;;;;17.22;40.67;100773.16;5045813;28;20049;-63
2022/12/10 02:48:25;;;;;;;6.47;5.35;;;;;;;17.22;40.71;100782.06;5045642;28;20041;-63
2022/12/10 02:50:50;;;;;;;6.75;5.80;;;;;;;17.22;40.65;100775.84;5047453;28;20017;-63
2022/12/10 02:53:16;;;;;;;8.32;5.95;;;;;;;17.23;40.58;100788.28;5046761;28;20081;-62
2022/12/10 02:55:53;;;;;;;7.00;5.30;;;;;;;17.22;40.53;100781.22;5045694;28;20053;-62
2022/12/10 02:58:41;;;;;;;6.80;5.50;;;;;;;17.23;40.57;100772.16;5046508;28;20024;-63
2022/12/10 03:01:21;;;;;;;6.65;5.35;;;;;;;17.22;40.60;100779.38;5047068;28;20032;-63
2022/12/10 03:03:53;;;;;;;5.63;4.90;;;;;;;17.22;40.76;100791.97;5062193;28;20049;-63
2022/12/10 03:06:32;;;;;;;6.60;5.32;;;;;;;17.21;40.59;100784.91;5061728;28;20032;-63
2022/12/10 03:09:05;;;;;;;7.38;5.93;;;;;;;17.21;40.70;100790.28;5045803;28;20044;-63
2022/12/10 03:11:30;;;;;;;6.63;5.22;;;;;;;17.20;40.58;100784.09;5045349;28;20402;-63
2022/12/10 03:14:15;;;;;;;6.18;5.07;;;;;;;17.21;40.71;100790.28;5044844;28;20025;-63
2022/12/10 03:16:48;;;;;;;8.70;5.95;;;;;;;17.16;40.66;100779.16;5046312;28;20056;-63
2022/12/10 03:19:19;;;;;;;6.63;5.35;;;;;;;17.20;40.60;100781.41;5045496;28;20018;-63
2022/12/10 03:21:46;;;;;;;5.30;4.80;;;;;;;17.20;40.66;100780.53;5046612;28;20471;-62
2022/12/10 03:24:12;;;;;;;5.97;5.30;;;;;;;17.19;40.65;100768.94;5044659;28;20064;-62
2022/12/10 03:26:38;;;;;;;8.07;5.45;;;;;;;17.19;40.65;100779.69;5046259;28;20025;-62
2022/12/10 03:29:07;;;;;;;6.93;5.57;;;;;;;17.19;40.59;100766.25;5044711;28;20085;-63
2022/12/10 03:31:33;;;;;;;6.32;4.93;;;;;;;17.12;40.48;100754.47;5046401;28;20124;-61
2022/12/10 03:33:59;;;;;;;5.93;5.07;;;;;;;17.20;40.60;100761.72;5046206;28;20036;-62
2022/12/10 03:36:25;;;;;;;6.40;5.75;;;;;;;17.18;40.47;100769.13;5044574;28;20029;-63
2022/12/10 03:38:50;;;;;;;6.40;5.05;;;;;;;17.20;40.52;100769.78;5046467;28;20029;-63
2022/12/10 03:41:16;;;;;;;8.10;5.40;;;;;;;17.19;40.51;100765.41;5044998;28;20017;-63
2022/12/10 03:43:59;;;;;;;7.75;6.13;;;;;;;17.18;40.47;100767.25;5045176;28;20025;-62
2022/12/10 03:46:26;;;;;;;6.00;5.05;;;;;;;17.18;40.53;100766.44;5045164;28;20030;-63
2022/12/10 03:48:52;;;;;;;5.85;5.25;;;;;;;17.18;40.73;100767.25;5046042;28;20055;-63
2022/12/10 03:51:18;;;;;;;5.93;5.22;;;;;;;17.18;40.47;100775.31;5045928;28;20033;-62
2022/12/10 03:53:43;;;;;;;6.68;5.97;;;;;;;17.15;40.54;100778.31;5045751;28;20475;-62
2022/12/10 03:56:09;;;;;;;6.47;5.10;;;;;;;17.18;40.56;100786.06;5045547;28;20030;-62
2022/12/10 03:58:34;;;;;;;6.20;5.35;;;;;;;17.16;40.40;100769.28;5040758;28;20038;-61
2022/12/10 04:00:59;;;;;;;6.25;5.07;;;;;;;17.17;40.36;100778.19;5026281;28;20041;-63
2022/12/10 04:03:25;;;;;;;6.13;5.50;;;;;;;17.17;40.52;100781.72;5025790;28;20029;-63
2022/12/10 04:05:50;;;;;;;6.97;5.63;;;;;;;17.16;40.43;100773.78;5025974;28;20029;-63
2022/12/10 04:08:15;;;;;;;6.15;5.00;;;;;;;17.07;40.40;100761.31;5025879;28;20037;-63
2022/12/10 04:10:40;;;;;;;5.95;5.22;;;;;;;17.17;40.33;100781.72;5025890;28;20048;-64
2022/12/10 04:16:27;;;;;;;6.03;4.97;;;;;;;17.17;40.47;100786.25;5003533;28;20446;-61
2022/12/10 04:18:54;;;;;;;5.40;4.70;;;;;;;17.16;40.42;100785.41;5004090;28;20027;-62
2022/12/10 04:26:55;;;;;;;6.93;5.47;;;;;;;17.14;40.15;100783.88;5005011;28;20069;-62
2022/12/10 04:29:25;;;;;;;5.25;4.57;;;;;;;17.14;40.40;100795.44;5006417;28;20060;-62
2022/12/10 04:31:51;;;;;;;6.03;4.68;;;;;;;17.14;40.61;100791.94;5006461;28;20035;-62
2022/12/10 04:34:17;;;;;;;5.97;5.15;;;;;;;17.15;40.34;100785.53;5005816;28;20049;-62
2022/12/10 04:36:42;;;;;;;6.53;5.47;;;;;;;17.13;40.24;100779.50;5005396;28;20491;-62
2022/12/10 04:39:07;;;;;;;7.72;5.53;;;;;;;17.14;40.50;100781.19;5003357;28;20423;-62
2022/12/10 04:41:33;;;;;;;6.43;5.00;;;;;;;17.14;40.43;100791.94;4986900;28;20038;-63
2022/12/10 04:43:58;;;;;;;7.13;5.40;;;;;;;17.14;40.51;100787.38;5002741;28;20034;-64
2022/12/10 04:46:23;;;;;;;6.38;5.25;;;;;;;17.13;40.62;100782.19;5009123;28;20084;-64
2022/12/10 04:48:48;;;;;;;6.75;5.78;;;;;;;17.12;40.31;100777.78;5025043;28;20048;-63
2022/12/10 04:51:14;;;;;;;6.13;4.85;;;;;;;17.12;40.33;100778.66;5040409;28;20386;-63
2022/12/10 04:53:39;;;;;;;6.43;5.72;;;;;;;17.12;40.18;100785.84;5024919;28;20038;-64
2022/12/10 04:56:05;;;;;;;5.57;4.95;;;;;;;17.11;40.11;100786.88;5025293;28;20029;-64
2022/12/10 04:58:32;;;;;;;5.25;4.47;;;;;;;17.12;40.26;100788.53;5027894;28;20026;-64
2022/12/10 05:01:04;;;;;;;6.82;5.30;;;;;;;17.03;40.21;100778.75;5044929;28;20032;-64
2022/12/10 05:03:30;;;;;;;6.85;5.82;;;;;;;17.04;40.24;100777.78;5044496;28;20489;-64
2022/12/10 05:05:56;;;;;;;7.68;4.95;;;;;;;17.11;40.20;100790.38;5044912;28;20034;-64
2022/12/10 05:08:21;;;;;;;6.75;5.40;;;;;;;17.10;40.17;100787.88;5059874;28;20064;-64
2022/12/10 05:10:47;;;;;;;6.20;4.80;;;;;;;17.05;40.35;100777.59;5044790;28;20029;-64
2022/12/10 05:13:12;;;;;;;6.60;5.65;;;;;;;17.08;40.33;100795.25;5044453;28;20117;-62
2022/12/10 05:15:38;;;;;;;6.25;5.30;;;;;;;17.11;40.31;100802.97;5030994;28;20033;-63
2022/12/10 05:18:03;;;;;;;5.55;5.05;;;;;;;17.10;40.25;100804.00;5040926;28;20036;-62
2022/12/10 05:20:29;;;;;;;6.03;5.18;;;;;;;17.09;40.30;100799.63;5040779;28;20026;-63
2022/12/10 05:25:52;;;;;;;6.05;5.10;;;;;;;17.09;40.19;100791.56;5032289;28;20032;-62
2022/12/10 05:28:19;;;;;;;5.90;5.18;;;;;;;17.07;40.28;100789.03;5044881;28;20167;-62
2022/12/10 05:30:44;;;;;;;5.28;4.75;;;;;;;17.07;40.41;100788.19;5043813;28;20029;-63
2022/12/10 05:33:10;;;;;;;6.38;4.72;;;;;;;17.07;40.25;100798.94;5044254;28;20029;-62
2022/12/10 05:35:35;;;;;;;7.00;5.85;;;;;;;17.01;40.14;100792.34;5044148;28;20029;-62
2022/12/10 05:38:00;;;;;;;6.88;5.45;;;;;;;17.06;40.21;100805.31;5044714;28;20059;-62
2022/12/10 05:40:25;;;;;;;7.13;5.25;;;;;;;17.07;40.13;100804.31;5043860;28;20037;-62
2022/12/10 05:42:51;;;;;;;7.05;5.30;;;;;;;17.07;40.13;100805.13;5043140;28;20068;-62
2022/12/10 05:45:16;;;;;;;5.38;4.82;;;;;;;17.08;40.26;100797.94;5042638;28;20033;-62
2022/12/10 05:47:41;;;;;;;7.75;6.18;;;;;;;17.07;40.24;100802.44;5044505;28;20053;-62
2022/12/10 05:50:07;;;;;;;5.57;4.93;;;;;;;17.04;40.32;100789.38;5044351;28;20029;-62
2022/12/10 05:52:32;;;;;;;5.70;5.07;;;;;;;17.05;40.22;100793.72;5043974;28;20034;-62
2022/12/10 05:54:57;;;;;;;7.18;5.18;;;;;;;17.09;40.18;100796.94;5039176;28;20033;-62
2022/12/10 05:57:23;;;;;;;6.25;5.47;;;;;;;17.09;40.20;100794.25;5036161;28;20026;-62
2022/12/10 05:59:48;;;;;;;6.45;5.45;;;;;;;17.09;40.36;100800.47;5037735;28;20474;-62
2022/12/10 06:02:13;;;;;;;6.70;5.65;;;;;;;17.09;40.32;100800.47;5044299;28;20037;-62
2022/12/10 06:04:38;;;;;;;6.28;5.50;;;;;;;17.09;40.26;100796.94;5042175;28;20100;-63
2022/12/10 06:07:04;;;;;;;6.78;5.95;;;;;;;17.10;40.44;100801.31;5040875;28;20029;-62
2022/12/10 06:09:29;;;;;;;6.75;5.50;;;;;;;17.10;40.54;100799.47;5024648;28;20364;-63
2022/12/10 06:11:54;;;;;;;5.95;5.10;;;;;;;17.10;40.53;100804.00;5028032;28;20026;-62
2022/12/10 06:14:19;;;;;;;6.18;5.57;;;;;;;17.10;40.65;100799.47;5042904;28;20105;-62
2022/12/10 06:16:45;;;;;;;6.47;5.40;;;;;;;17.10;40.70;100801.31;5047111;28;20029;-63
2022/12/10 06:19:10;;;;;;;5.35;4.85;;;;;;;17.10;40.75;100796.78;5047603;28;20056;-62
2022/12/10 06:21:35;;;;;;;9.15;6.18;;;;;;;17.10;40.90;100804.81;5047698;28;20053;-62
2022/12/10 06:24:01;;;;;;;6.35;5.47;;;;;;;17.11;40.93;100811.03;5047245;28;20028;-62
2022/12/10 06:26:26;;;;;;;6.40;5.30;;;;;;;17.11;41.10;100811.03;5046776;28;20127;-62
2022/12/10 06:28:52;;;;;;;6.32;4.95;;;;;;;17.12;40.90;100813.59;5046983;28;20061;-63
2022/12/10 06:31:18;;;;;;;7.13;5.70;;;;;;;17.13;41.17;100822.47;5047772;28;20033;-63
2022/12/10 06:33:43;;;;;;;6.93;5.82;;;;;;;17.13;41.15;100823.31;5046919;28;20048;-62
2022/12/10 06:36:10;;;;;;;9.43;5.63;;;;;;;17.13;41.11;100822.47;5047489;28;20036;-62
2022/12/10 06:38:36;;;;;;;6.57;5.18;;;;;;;17.14;41.17;100834.91;5047164;28;20116;-62
2022/12/10 06:41:04;;;;;;;6.50;5.15;;;;;;;17.13;41.07;100834.06;5047261;28;20029;-62
2022/12/10 06:43:29;;;;;;;6.25;5.43;;;;;;;17.13;40.97;100838.59;5046428;28;20045;-62
2022/12/10 06:45:55;;;;;;;6.97;5.25;;;;;;;17.14;41.01;100841.13;5045741;28;20044;-63
2022/12/10 06:48:20;;;;;;;6.57;5.97;;;;;;;17.15;41.15;100844.66;5047028;28;20107;-63
2022/12/10 06:50:45;;;;;;;6.63;5.28;;;;;;;17.14;40.97;100843.81;5047287;28;20026;-63
2022/12/10 06:53:10;;;;;;;7.80;6.13;;;;;;;17.15;40.87;100842.78;5046994;28;20486;-62
2022/12/10 06:55:38;;;;;;;6.90;5.55;;;;;;;17.15;41.12;100844.66;5047041;28;20029;-62
2022/12/10 06:58:03;;;;;;;6.45;5.72;;;;;;;17.15;41.22;100842.78;5047147;28;20029;-62
2022/12/10 07:00:28;;;;;;;6.72;5.40;;;;;;;16.97;41.02;100810.63;5026939;28;20508;-62
2022/12/10 07:02:53;;;;;;;7.22;5.82;;;;;;;17.16;41.14;100851.69;5032134;28;20028;-62
2022/12/10 07:05:19;;;;;;;6.85;5.63;;;;;;;17.09;41.07;100835.38;5046664;28;20498;-62
2022/12/10 07:07:44;;;;;;;6.75;5.90;;;;;;;17.16;41.19;100849.88;5046914;28;20083;-62
2022/12/10 07:10:09;;;;;;;7.47;5.75;;;;;;;17.15;40.95;100850.84;5046655;28;20029;-62
2022/12/10 07:12:35;;;;;;;6.65;5.70;;;;;;;17.10;41.00;100845.13;5046816;28;20033;-62
2022/12/10 07:15:00;;;;;;;7.97;6.38;;;;;;;17.17;41.06;100854.25;5046284;28;20089;-62
2022/12/10 07:17:25;;;;;;;7.85;6.03;;;;;;;17.16;41.03;100851.69;5046174;28;20021;-62
2022/12/10 07:19:51;;;;;;;7.05;5.68;;;;;;;17.15;41.12;100850.84;5046763;28;20065;-62
2022/12/10 07:22:17;;;;;;;8.05;6.43;;;;;;;17.14;41.21;100859.94;5045826;28;20029;-62
2022/12/10 07:24:42;;;;;;;7.78;6.03;;;;;;;17.16;41.04;100871.38;5046408;28;20029;-62
2022/12/10 07:27:07;;;;;;;7.65;5.95;;;;;;;17.16;41.17;100875.88;5046516;28;20167;-62
2022/12/10 07:29:33;;;;;;;8.57;6.50;;;;;;;17.16;41.02;100867.81;5045596;28;20037;-62
2022/12/10 07:31:58;;;;;;;7.90;5.95;;;;;;;17.17;40.95;100872.22;5046746;28;20112;-62
2022/12/10 07:34:24;;;;;;;9.60;6.50;;;;;;;17.18;41.13;100879.25;5046151;28;20045;-61
2022/12/10 07:36:49;;;;;;;8.18;6.18;;;;;;;17.18;41.05;100879.25;5046406;28;20029;-62
2022/12/10 07:39:17;;;;;;;10.23;6.95;;;;;;;17.18;41.08;100880.09;5046013;28;20032;-62
2022/12/10 07:41:52;;;;;;;10.25;6.65;;;;;;;17.17;41.13;100875.75;5046544;28;20112;-62
2022/12/10 07:44:20;;;;;;;8.90;6.97;;;;;;;17.17;40.98;100880.28;5045528;28;20026;-62
2022/12/10 07:46:46;;;;;;;11.55;7.32;;;;;;;17.12;40.98;100875.38;5044602;28;20064;-62
2022/12/10 07:49:13;;;;;;;9.10;6.60;;;;;;;17.18;40.68;100893.53;5045459;28;20029;-62
2022/12/10 07:51:38;;;;;;;9.60;7.05;;;;;;;17.17;41.08;100893.72;5045313;28;20021;-62
2022/12/10 07:54:03;;;;;;;9.25;7.15;;;;;;;17.17;41.09;100891.84;5044997;28;20508;-62
2022/12/10 07:56:28;;;;;;;11.85;7.80;;;;;;;17.16;41.01;100894.69;5045343;28;20032;-61
2022/12/10 07:58:54;;;;;;;9.65;7.15;;;;;;;17.21;41.18;100897.75;5039088;28;20065;-66
2022/12/10 08:01:22;;;;;;;8.82;6.03;;;;;;;17.21;41.05;100895.91;5045890;28;20021;-67
2022/12/10 08:03:47;;;;;;;9.70;6.10;;;;;;;17.20;41.05;100902.31;5045193;28;20041;-66
2022/12/10 08:06:15;;;;;;;9.70;6.88;;;;;;;17.20;41.30;100907.66;5048160;28;20056;-68
2022/12/10 08:08:41;;;;;;;9.23;7.38;;;;;;;17.20;41.25;100910.34;5063746;28;20099;-65
2022/12/10 08:11:06;;;;;;;12.02;7.47;;;;;;;17.21;41.06;100908.50;5050960;28;20536;-66
2022/12/10 08:13:32;;;;;;;11.48;7.40;;;;;;;17.18;41.19;100895.38;5055861;28;20031;-64
2022/12/10 08:16:07;;;;;;;10.25;6.80;;;;;;;17.25;41.15;100912.56;5056759;28;20051;-64
2022/12/10 08:18:33;;;;;;;10.38;7.70;;;;;;;17.28;41.09;100914.09;5052697;28;20143;-64
2022/12/10 08:21:03;;;;;;;8.93;6.47;;;;;;;17.31;40.94;100911.09;5045349;28;20041;-65
2022/12/10 08:23:28;;;;;;;11.75;7.35;;;;;;;17.31;40.78;100922.69;5044844;28;20040;-64
2022/12/10 08:25:53;;;;;;;9.65;7.13;;;;;;;17.30;40.95;100914.78;5044074;28;20033;-65
2022/12/10 08:28:19;;;;;;;9.30;7.43;;;;;;;17.32;40.89;100927.03;5060558;28;20032;-61
2022/12/10 08:30:48;;;;;;;9.75;7.13;;;;;;;17.32;40.87;100929.72;5062457;28;20427;-63
2022/12/10 08:33:13;;;;;;;;;;;;;;;17.37;40.85;100923.88;5050032;28;20052;-64
2022/12/10 08:35:38;;;;;;;10.77;7.82;;;;;;;17.34;40.99;100919.69;5054473;28;19917;-64
2022/12/10 08:38:04;;;;;;;10.05;7.13;;;;;;;17.33;40.91;100918.00;5058202;28;20033;-66
2022/12/10 08:40:29;;;;;;;10.93;7.85;;;;;;;17.34;40.92;100934.97;5046816;28;20548;-62
2022/12/10 08:42:54;;;;;;;10.43;7.82;;;;;;;17.34;40.85;100929.59;5046051;28;20018;-63
2022/12/10 08:45:20;;;;;;;12.05;7.45;;;;;;;17.32;41.13;100942.31;5042457;28;20482;-63
2022/12/10 08:47:45;;;;;;;10.25;7.28;;;;;;;17.32;40.98;100943.16;5050518;28;20041;-64
2022/12/10 08:50:10;;;;;;;13.05;8.27;;;;;;;17.37;41.16;100940.00;5044403;28;20040;-64
2022/12/10 08:52:35;;;;;;;9.68;7.55;;;;;;;17.39;40.84;100938.84;5059713;28;20037;-64
2022/12/10 08:55:02;;;;;;;10.80;7.90;;;;;;;17.31;41.29;100928.06;5059611;28;20037;-64
2022/12/10 08:57:27;;;;;;;13.15;9.35;;;;;;;17.42;40.62;100937.72;5048443;28;20025;-64
2022/12/10 08:59:53;;;;;;;12.05;8.57;;;;;;;17.42;40.89;100948.47;5043630;28;20029;-64
2022/12/10 09:02:18;;;;;;;10.50;7.63;;;;;;;17.43;41.00;100950.97;5059669;28;20032;-64
2022/12/10 09:04:46;;;;;;;11.52;7.97;;;;;;;17.46;40.90;100948.00;5044318;28;20059;-64
2022/12/10 09:07:11;;;;;;;11.95;7.95;;;;;;;17.46;40.91;100939.94;5043955;28;20537;-64
2022/12/10 09:09:37;;;;;;;11.82;8.23;;;;;;;17.46;40.78;100942.63;5052994;28;20040;-64
2022/12/10 09:12:02;;;;;;;12.05;9.13;;;;;;;17.35;40.87;100929.44;5057360;28;20021;-62
2022/12/10 09:14:27;;;;;;;12.07;9.27;;;;;;;17.49;40.52;100950.34;5046932;28;20083;-60
2022/12/10 09:16:53;;;;;;;11.55;8.52;;;;;;;17.49;40.66;100944.97;5044182;28;20108;-61
2022/12/10 09:19:18;;;;;;;12.93;8.70;;;;;;;17.49;40.67;100950.34;5051016;28;20028;-59
2022/12/10 09:21:43;;;;;;;14.20;9.45;;;;;;;17.52;40.69;100948.34;5050407;28;20393;-60
2022/12/10 09:24:09;;;;;;;14.75;10.40;;;;;;;17.55;40.36;100951.56;5043817;28;20036;-60
2022/12/10 09:26:34;;;;;;;17.42;11.50;;;;;;;17.58;40.54;100955.75;5042524;28;20025;-60
2022/12/10 09:29:00;;;;;;;20.25;11.48;;;;;;;17.59;40.39;100949.41;5043365;28;20029;-60
2022/12/10 09:31:26;;;;;;;16.55;10.98;;;;;;;17.58;40.42;100955.75;5044303;28;20037;-60
2022/12/10 09:33:52;;;;;;;17.33;10.93;;;;;;;17.57;40.17;100959.47;5043571;28;20034;-60
2022/12/10 09:36:18;;;;;;;16.92;11.63;;;;;;;17.56;40.28;100964.00;5044506;28;20025;-59
2022/12/10 09:38:44;;;;;;;15.60;11.13;;;;;;;17.54;40.28;100966.00;5043827;28;20036;-59
2022/12/10 09:41:34;;;;;;;16.42;10.57;;;;;;;17.52;40.52;100977.91;5044073;28;20025;-60
2022/12/10 09:44:14;;;;;;;16.10;10.68;;;;;;;17.52;40.24;100973.38;5042889;28;20030;-59
2022/12/10 09:46:49;;;;;;;18.95;12.20;;;;;;;17.52;40.23;100972.53;5045882;28;20032;-60
2022/12/10 09:49:24;;;;;;;20.75;12.00;;;;;;;17.53;40.51;100972.38;5047714;28;20060;-59
2022/12/10 09:51:50;;;;;;;17.25;11.57;;;;;;;17.52;40.25;100965.31;5030377;28;20033;-60
2022/12/10 09:54:22;;;;;;;18.50;13.05;;;;;;;17.55;40.30;100969.53;5025652;28;20022;-59
2022/12/10 09:56:48;;;;;;;20.30;12.45;;;;;;;17.56;40.29;100968.53;5047007;28;20037;-58
2022/12/10 09:59:20;;;;;;;16.30;11.52;;;;;;;17.55;40.34;100973.06;5046857;28;20022;-60
2022/12/10 10:01:47;;;;;;;19.88;12.27;;;;;;;17.56;40.27;100971.22;5046599;28;20030;-60
2022/12/10 10:04:12;;;;;;;18.98;11.77;;;;;;;17.56;40.08;100977.44;5046998;28;20029;-59
2022/12/10 10:06:37;;;;;;;20.42;12.50;;;;;;;17.57;40.30;100983.66;5047523;28;20025;-59
2022/12/10 10:09:04;;;;;;;18.42;12.70;;;;;;;17.55;40.04;100985.69;5046615;28;20112;-59
2022/12/10 10:11:32;;;;;;;14.65;10.82;;;;;;;17.55;40.28;100985.69;5047860;28;20072;-60
2022/12/10 10:14:13;;;;;;;15.27;11.00;;;;;;;17.55;39.97;100983.81;5048925;28;20033;-59
2022/12/10 10:16:50;;;;;;;17.58;11.98;;;;;;;17.55;40.11;100980.31;5047893;28;20021;-59
2022/12/10 10:19:21;;;;;;;17.80;12.23;;;;;;;17.54;40.15;100987.50;5048221;28;20026;-59
2022/12/10 10:21:50;;;;;;;19.08;12.05;;;;;;;17.34;40.14;100951.09;5062475;28;20060;-60
2022/12/10 10:24:20;;;;;;;18.60;11.73;;;;;;;17.55;40.07;100986.50;5048035;28;20045;-59
2022/12/10 10:26:45;;;;;;;18.52;11.32;;;;;;;17.54;39.92;100984.81;5046134;28;20052;-59
2022/12/10 10:29:12;;;;;;;15.13;11.05;;;;;;;17.53;40.03;100985.81;5045184;28;20691;-62
2022/12/10 10:31:41;;;;;;;17.08;12.65;;;;;;;17.52;39.93;100983.28;5045630;28;20368;-60
2022/12/10 10:34:19;;;;;;;17.75;11.30;;;;;;;17.53;40.10;100984.97;5047164;28;20090;-60
2022/12/10 10:36:44;;;;;;;18.00;11.90;;;;;;;17.50;40.04;100978.09;5039295;28;20044;-60
2022/12/10 10:39:24;;;;;;;18.25;11.52;;;;;;;17.53;40.32;100985.81;5046240;28;20029;-59
2022/12/10 10:41:52;;;;;;;17.85;11.38;;;;;;;17.55;40.41;100989.22;5047849;28;20457;-60
2022/12/10 10:44:22;;;;;;;16.08;10.75;;;;;;;17.52;40.48;100984.13;5064696;28;20025;-60
2022/12/10 10:46:50;;;;;;;17.75;11.57;;;;;;;17.54;40.53;100989.34;5053928;28;20049;-61
2022/12/10 10:49:23;;;;;;;15.60;10.85;;;;;;;17.55;40.64;100986.50;5040395;28;20079;-59
2022/12/10 10:51:50;;;;;;;16.40;11.73;;;;;;;17.52;40.58;100980.59;5041520;28;20052;-61
2022/12/10 10:54:38;;;;;;;17.10;11.90;;;;;;;17.59;40.47;100979.81;5041542;28;20116;-61
2022/12/10 10:57:10;;;;;;;18.33;12.65;;;;;;;17.59;40.68;100979.81;5057318;28;20029;-60
2022/12/10 10:59:36;;;;;;;18.25;11.05;;;;;;;17.60;40.64;100976.13;5053889;28;20029;-60
2022/12/10 11:02:33;;;;;;;18.35;11.63;;;;;;;17.53;40.57;100964.31;5054736;28;20025;-61
2022/12/10 11:05:05;;;;;;;15.55;10.57;;;;;;;17.40;40.50;100945.91;5023289;28;20021;-60
2022/12/10 11:07:37;;;;;;;17.88;12.65;;;;;;;17.57;40.66;100973.75;5046206;28;20029;-61
2022/12/10 11:10:23;;;;;;;17.10;11.52;;;;;;;17.63;40.66;100978.50;5045919;28;20521;-60
2022/12/10 11:13:06;;;;;;;18.85;12.65;;;;;;;17.65;40.29;100976.50;5046104;28;20025;-60
2022/12/10 11:15:39;;;;;;;15.38;11.35;;;;;;;17.66;40.18;100978.16;5045669;28;20026;-60
2022/12/10 11:18:32;;;;;;;16.65;11.73;;;;;;;17.68;40.44;100983.41;5066163;28;20020;-60
2022/12/10 11:21:17;;;;;;;15.95;11.88;;;;;;;17.69;40.41;100982.41;5046949;28;20029;-60
2022/12/10 11:23:47;;;;;;;17.02;12.65;;;;;;;17.70;40.29;100978.69;5047747;28;20025;-60
2022/12/10 11:26:40;;;;;;;17.85;12.13;;;;;;;17.71;40.38;100981.25;5047105;28;20073;-61
2022/12/10 11:29:28;;;;;;;17.33;10.75;;;;;;;17.74;40.34;100977.41;5058431;28;20051;-59
2022/12/10 11:32:31;;;;;;;14.98;11.00;;;;;;;17.74;40.28;100980.09;5043379;28;20022;-59
2022/12/10 11:35:08;;;;;;;14.77;10.60;;;;;;;17.77;40.11;100971.72;5045616;28;20068;-60
2022/12/10 11:37:43;;;;;;;20.75;12.70;;;;;;;17.76;39.73;100972.72;5050895;28;20043;-60
2022/12/10 11:40:19;;;;;;;14.82;11.02;;;;;;;17.75;39.83;100962.97;5050969;28;20440;-59